createdAt,value
2023-02-05T00:01:06.751Z,19.33
2023-02-05T00:03:35.246Z,19.58
2023-02-05T00:06:05.324Z,21.20
2023-02-05T00:08:36.534Z,22.23
2023-02-05T00:11:12.288Z,21.80
2023-02-05T00:13:43.648Z,20.48
2023-02-05T00:16:13.193Z,20.25
2023-02-05T00:18:40.138Z,21.52
2023-02-05T00:21:10.870Z,22.85
2023-02-05T00:23:37.770Z,20.80
2023-02-05T00:26:10.912Z,19.25
2023-02-05T00:28:38.047Z,24.23
2023-02-05T00:31:10.810Z,25.48
2023-02-05T00:33:37.416Z,19.58
2023-02-05T00:36:06.165Z,22.88
2023-02-05T00:38:32.841Z,19.95
2023-02-05T00:40:59.763Z,16.85
2023-02-05T00:43:26.269Z,16.55
2023-02-05T00:45:52.846Z,14.82
2023-02-05T00:48:19.313Z,15.65
2023-02-05T00:50:48.583Z,9.88
2023-02-05T00:53:15.452Z,11.35
2023-02-05T00:55:41.927Z,10.52
2023-02-05T00:58:11.580Z,10.50
2023-02-05T01:00:41.433Z,8.32
2023-02-05T01:03:09.406Z,10.23
2023-02-05T01:05:37.239Z,11.95
2023-02-05T01:08:04.762Z,10.43
2023-02-05T01:10:31.774Z,7.80
2023-02-05T01:12:58.302Z,13.40
2023-02-05T01:15:25.008Z,13.90
2023-02-05T01:17:52.189Z,11.27
2023-02-05T01:20:20.445Z,9.75
2023-02-05T01:22:47.199Z,9.70
2023-02-05T01:25:16.277Z,7.47
2023-02-05T01:27:55.650Z,6.90
2023-02-05T01:30:27.451Z,6.57
2023-02-05T01:32:56.588Z,9.40
2023-02-05T01:35:26.500Z,10.23
2023-02-05T01:37:53.689Z,6.63
2023-02-05T01:40:22.339Z,7.70
2023-02-05T01:42:48.872Z,7.65
2023-02-05T01:45:32.500Z,8.93
2023-02-05T01:48:07.528Z,8.85
2023-02-05T01:51:15.051Z,9.55
2023-02-05T01:53:47.951Z,7.55
2023-02-05T01:56:21.218Z,11.27
2023-02-05T01:59:33.514Z,9.70
2023-02-05T02:02:01.582Z,11.25
2023-02-05T02:04:52.369Z,9.57
2023-02-05T02:07:25.126Z,16.40
2023-02-05T02:09:53.702Z,12.02
2023-02-05T02:12:28.739Z,11.80
2023-02-05T02:14:59.924Z,10.75
2023-02-05T02:17:27.992Z,15.25
2023-02-05T02:20:10.624Z,14.75
2023-02-05T02:22:57.998Z,11.75
2023-02-05T02:25:58.467Z,11.98
2023-02-05T02:28:56.707Z,12.55
2023-02-05T02:31:33.581Z,15.07
2023-02-05T02:34:16.689Z,10.80
2023-02-05T02:37:02.730Z,13.05
2023-02-05T02:39:44.619Z,11.40
2023-02-05T02:42:17.654Z,14.45
2023-02-05T02:45:00.593Z,10.45
2023-02-05T02:47:35.126Z,12.50
2023-02-05T02:50:15.715Z,10.32
2023-02-05T02:52:45.624Z,13.70
2023-02-05T02:55:14.015Z,9.88
2023-02-05T02:57:43.662Z,12.55
2023-02-05T03:00:14.539Z,10.35
2023-02-05T03:02:44.040Z,11.32
2023-02-05T03:05:18.288Z,10.10
2023-02-05T03:07:52.702Z,10.77
2023-02-05T03:10:51.164Z,10.38
2023-02-05T03:13:19.525Z,10.38
2023-02-05T03:15:47.437Z,8.10
2023-02-05T03:18:15.662Z,11.35
2023-02-05T03:20:55.599Z,10.57
2023-02-05T03:23:23.033Z,9.73
2023-02-05T03:25:49.908Z,8.38
2023-02-05T03:28:16.517Z,9.45
2023-02-05T03:31:01.036Z,10.27
2023-02-05T03:33:44.180Z,8.10
2023-02-05T03:36:25.240Z,10.07
2023-02-05T03:39:19.214Z,10.10
2023-02-05T03:41:56.092Z,7.72
2023-02-05T03:44:38.010Z,8.73
2023-02-05T03:47:15.371Z,10.20
2023-02-05T03:50:00.442Z,9.52
2023-02-05T03:52:32.690Z,7.43
2023-02-05T03:55:18.233Z,10.40
2023-02-05T03:58:02.335Z,10.55
2023-02-05T04:00:29.185Z,8.50
2023-02-05T04:02:55.802Z,7.93
2023-02-05T04:05:23.031Z,7.03
2023-02-05T04:07:50.568Z,8.02
2023-02-05T04:10:18.562Z,11.48
2023-02-05T04:12:45.319Z,11.68
2023-02-05T04:15:12.034Z,9.18
2023-02-05T04:17:39.064Z,7.13
2023-02-05T04:20:07.026Z,9.20
2023-02-05T04:22:33.584Z,7.10
2023-02-05T04:25:00.068Z,9.40
2023-02-05T04:27:26.613Z,9.65
2023-02-05T04:29:53.055Z,6.90
2023-02-05T04:32:19.538Z,6.78
2023-02-05T04:34:46.579Z,8.07
2023-02-05T04:37:13.116Z,8.50
2023-02-05T04:39:39.552Z,7.50
2023-02-05T04:42:06.163Z,7.25
2023-02-05T04:44:32.653Z,6.18
2023-02-05T04:46:59.692Z,8.00
2023-02-05T04:49:26.273Z,8.35
2023-02-05T04:51:52.761Z,7.97
2023-02-05T04:54:19.309Z,5.88
2023-02-05T04:56:46.971Z,5.93
2023-02-05T04:59:13.575Z,7.55
2023-02-05T05:01:43.501Z,6.97
2023-02-05T05:04:09.992Z,8.40
2023-02-05T05:06:36.538Z,6.82
2023-02-05T05:09:03.154Z,9.85
2023-02-05T05:11:29.650Z,6.32
2023-02-05T05:13:56.176Z,6.47
2023-02-05T05:16:22.660Z,9.10
2023-02-05T05:18:51.629Z,7.03
2023-02-05T05:21:18.127Z,7.38
2023-02-05T05:23:44.611Z,6.30
2023-02-05T05:26:12.600Z,6.47
2023-02-05T05:28:39.955Z,10.00
2023-02-05T05:31:08.926Z,6.93
2023-02-05T05:33:35.775Z,3.97
2023-02-05T05:36:02.653Z,3.08
2023-02-05T05:38:29.177Z,3.60
2023-02-05T05:41:14.518Z,3.83
2023-02-05T05:43:46.829Z,4.18
2023-02-05T05:46:21.948Z,5.18
2023-02-05T05:48:50.645Z,6.97
2023-02-05T05:51:21.188Z,5.60
2023-02-05T05:53:48.503Z,5.90
2023-02-05T05:56:18.037Z,8.25
2023-02-05T05:58:45.109Z,5.50
2023-02-05T06:01:13.425Z,4.50
2023-02-05T06:03:39.906Z,4.53
2023-02-05T06:06:08.776Z,4.78
2023-02-05T06:08:35.629Z,6.93
2023-02-05T06:11:02.330Z,3.88
2023-02-05T06:13:28.893Z,4.95
2023-02-05T06:15:55.490Z,3.22
2023-02-05T06:18:24.454Z,5.85
2023-02-05T06:20:51.147Z,8.15
2023-02-05T06:23:17.927Z,4.22
2023-02-05T06:25:44.745Z,5.07
2023-02-05T06:28:11.259Z,4.82
2023-02-05T06:30:38.076Z,5.45
2023-02-05T06:33:05.373Z,4.57
2023-02-05T06:35:32.366Z,4.35
2023-02-05T06:37:59.055Z,3.97
2023-02-05T06:40:28.027Z,7.13
2023-02-05T06:42:55.257Z,4.82
2023-02-05T06:45:22.048Z,4.88
2023-02-05T06:47:49.803Z,9.80
2023-02-05T06:50:16.466Z,4.63
2023-02-05T06:52:43.105Z,4.05
2023-02-05T06:55:09.564Z,5.07
2023-02-05T06:57:36.133Z,5.18
2023-02-05T07:00:04.047Z,5.18
2023-02-05T07:02:30.640Z,5.35
2023-02-05T07:04:57.106Z,5.90
2023-02-05T07:07:23.620Z,4.10
2023-02-05T07:09:50.274Z,5.63
2023-02-05T07:12:16.794Z,5.97
2023-02-05T07:14:43.478Z,7.78
2023-02-05T07:17:09.981Z,5.82
2023-02-05T07:19:37.677Z,5.65
2023-02-05T07:22:05.432Z,5.28
2023-02-05T07:24:32.182Z,6.07
2023-02-05T07:26:58.680Z,5.22
2023-02-05T07:29:25.232Z,7.75
2023-02-05T07:31:52.310Z,5.70
2023-02-05T07:34:19.674Z,10.50
2023-02-05T07:36:49.136Z,5.20
2023-02-05T07:39:15.985Z,5.55
2023-02-05T07:41:42.522Z,5.00
2023-02-05T07:44:09.035Z,5.40
2023-02-05T07:46:35.525Z,5.85
2023-02-05T07:49:02.080Z,4.78
2023-02-05T07:51:28.549Z,4.95
2023-02-05T07:53:55.100Z,4.90
2023-02-05T07:56:21.772Z,8.43
2023-02-05T07:58:49.611Z,10.52
2023-02-05T08:01:16.203Z,4.10
2023-02-05T08:03:43.221Z,5.63
2023-02-05T08:06:13.989Z,7.65
2023-02-05T08:08:40.574Z,6.75
2023-02-05T08:11:07.467Z,5.80
2023-02-05T08:13:38.106Z,4.43
2023-02-05T08:16:06.583Z,7.03
2023-02-05T08:18:33.182Z,11.73
2023-02-05T08:20:59.922Z,6.32
2023-02-05T08:23:26.620Z,8.45
2023-02-05T08:25:54.691Z,5.63
2023-02-05T08:28:22.341Z,6.13
2023-02-05T08:30:48.975Z,7.60
2023-02-05T08:33:15.588Z,8.35
2023-02-05T08:35:42.080Z,7.53
2023-02-05T08:38:08.552Z,6.32
2023-02-05T08:40:35.846Z,10.65
2023-02-05T08:43:02.718Z,8.15
2023-02-05T08:45:30.708Z,6.78
2023-02-05T08:47:57.241Z,7.05
2023-02-05T08:50:23.799Z,8.40
2023-02-05T08:52:50.685Z,8.60
2023-02-05T08:55:18.251Z,7.93
2023-02-05T08:57:48.508Z,7.97
2023-02-05T09:00:15.437Z,7.72
2023-02-05T09:02:43.545Z,10.05
2023-02-05T09:05:10.374Z,13.73
2023-02-05T09:07:40.301Z,13.45
2023-02-05T09:10:12.357Z,9.75
2023-02-05T09:12:39.469Z,11.30
2023-02-05T09:15:07.938Z,8.52
2023-02-05T09:17:34.624Z,8.40
2023-02-05T09:20:01.223Z,5.70
2023-02-05T09:22:27.678Z,7.90
2023-02-05T09:24:54.205Z,10.18
2023-02-05T09:27:20.931Z,9.07
2023-02-05T09:29:47.425Z,12.82
2023-02-05T09:32:13.991Z,9.90
2023-02-05T09:34:40.625Z,10.68
2023-02-05T09:37:07.083Z,8.93
2023-02-05T09:42:46.827Z,11.02
2023-02-05T09:45:32.495Z,9.07
2023-02-05T09:48:28.140Z,13.73
2023-02-05T09:50:57.941Z,10.35
2023-02-05T09:53:27.158Z,9.32
2023-02-05T09:55:54.428Z,15.18
2023-02-05T09:58:31.031Z,11.85
2023-02-05T10:01:03.328Z,11.98
2023-02-05T10:03:56.164Z,9.52
2023-02-05T10:06:46.872Z,9.23
2023-02-05T10:09:57.592Z,10.48
2023-02-05T10:12:54.676Z,9.15
2023-02-05T10:16:01.415Z,11.68
2023-02-05T10:18:55.384Z,11.25
2023-02-05T10:21:50.702Z,11.60
2023-02-05T10:24:48.083Z,14.93
2023-02-05T10:27:40.715Z,13.68
2023-02-05T10:30:18.205Z,15.45
2023-02-05T10:32:58.312Z,10.80
2023-02-05T10:35:45.092Z,14.30
2023-02-05T10:38:27.094Z,15.43
2023-02-05T10:43:32.211Z,17.25
2023-02-05T10:45:59.910Z,15.23
2023-02-05T10:48:39.503Z,15.13
2023-02-05T10:51:17.748Z,15.88
2023-02-05T10:53:44.306Z,19.67
2023-02-05T10:56:17.515Z,19.42
2023-02-05T10:59:02.579Z,19.48
2023-02-05T11:01:38.701Z,17.55
2023-02-05T11:04:10.927Z,17.35
2023-02-05T11:06:41.250Z,18.38
2023-02-05T11:09:34.509Z,20.30
2023-02-05T11:12:29.213Z,17.63
2023-02-05T11:15:01.795Z,15.82
2023-02-05T11:17:28.245Z,18.80
2023-02-05T11:20:02.906Z,17.00
2023-02-05T11:22:33.160Z,19.15
2023-02-05T11:25:26.327Z,15.00
2023-02-05T11:27:58.794Z,17.85
2023-02-05T11:30:52.339Z,14.35
2023-02-05T11:33:24.202Z,18.38
2023-02-05T11:36:07.047Z,22.83
2023-02-05T11:38:47.761Z,23.63
2023-02-05T11:41:48.010Z,17.02
2023-02-05T11:44:25.931Z,16.70
2023-02-05T11:46:56.993Z,18.15
2023-02-05T11:49:32.849Z,15.88
2023-02-05T11:52:00.125Z,18.95
2023-02-05T11:54:29.848Z,18.50
2023-02-05T11:57:03.492Z,17.30
2023-02-05T11:59:29.991Z,19.23
2023-02-05T12:02:28.545Z,16.75
2023-02-05T12:05:01.282Z,20.48
2023-02-05T12:07:35.708Z,18.98
2023-02-05T12:10:02.306Z,20.40
2023-02-05T12:12:39.481Z,15.27
2023-02-05T12:15:19.695Z,14.25
2023-02-05T12:18:04.657Z,17.33
2023-02-05T12:20:37.145Z,17.85
2023-02-05T12:23:15.735Z,15.82
2023-02-05T12:25:54.043Z,17.83
2023-02-05T12:28:33.518Z,16.30
2023-02-05T12:31:31.867Z,19.85
2023-02-05T12:34:07.201Z,18.80
2023-02-05T12:37:02.907Z,16.30
2023-02-05T12:39:38.594Z,18.73
2023-02-05T12:42:24.319Z,21.27
2023-02-05T12:45:07.642Z,19.80
2023-02-05T12:47:49.177Z,20.30
2023-02-05T12:50:57.447Z,21.92
2023-02-05T12:53:42.091Z,20.05
2023-02-05T12:56:08.563Z,20.13
2023-02-05T12:58:42.342Z,17.75
2023-02-05T13:01:14.985Z,22.63
2023-02-05T13:03:55.143Z,20.02
2023-02-05T13:06:29.798Z,22.67
2023-02-05T13:09:03.021Z,17.65
2023-02-05T13:11:29.478Z,19.75
2023-02-05T13:14:06.690Z,18.95
2023-02-05T13:16:41.906Z,18.40
2023-02-05T13:19:41.176Z,23.40
2023-02-05T13:22:36.537Z,20.80
2023-02-05T13:25:37.911Z,22.98
2023-02-05T13:28:41.886Z,22.65
2023-02-05T13:31:24.573Z,20.30
2023-02-05T13:33:53.817Z,28.38
2023-02-05T13:36:20.280Z,24.08
2023-02-05T13:38:58.939Z,38.10
2023-02-05T13:41:57.931Z,26.00
2023-02-05T13:44:44.713Z,26.75
2023-02-05T13:47:48.512Z,27.73
2023-02-05T13:50:33.435Z,29.15
2023-02-05T13:53:18.466Z,27.92
2023-02-05T13:56:16.262Z,22.15
2023-02-05T13:58:57.703Z,24.63
2023-02-05T14:01:29.704Z,23.70
2023-02-05T14:04:09.791Z,18.85
2023-02-05T14:06:39.008Z,25.50
2023-02-05T14:09:23.520Z,21.58
2023-02-05T14:11:58.902Z,21.58
2023-02-05T14:14:35.055Z,20.55
2023-02-05T14:17:23.514Z,25.15
2023-02-05T14:19:57.048Z,24.13
2023-02-05T14:22:57.871Z,24.83
2023-02-05T14:25:42.587Z,20.27
2023-02-05T14:28:14.991Z,25.88
2023-02-05T14:30:57.194Z,20.55
2023-02-05T14:33:40.650Z,23.85
2023-02-05T14:36:19.682Z,21.75
2023-02-05T14:38:53.676Z,24.05
2023-02-05T14:41:24.295Z,21.75
2023-02-05T14:44:11.428Z,23.42
2023-02-05T14:46:54.278Z,22.10
2023-02-05T14:49:28.681Z,25.45
2023-02-05T14:52:01.288Z,23.50
2023-02-05T14:54:51.184Z,25.33
2023-02-05T14:57:41.227Z,21.80
2023-02-05T15:00:25.907Z,23.92
2023-02-05T15:03:17.789Z,24.80
2023-02-05T15:05:44.271Z,27.08
2023-02-05T15:08:19.876Z,23.13
2023-02-05T15:11:14.335Z,24.05
2023-02-05T15:13:41.358Z,23.10
2023-02-05T15:16:17.206Z,26.52
2023-02-05T15:19:06.063Z,24.00
2023-02-05T15:21:43.203Z,23.52
2023-02-05T15:24:30.227Z,22.80
2023-02-05T15:27:03.832Z,21.60
2023-02-05T15:29:35.626Z,27.05
2023-02-05T15:32:16.485Z,23.88
2023-02-05T15:34:52.955Z,25.15
2023-02-05T15:37:29.929Z,26.50
2023-02-05T15:40:08.108Z,22.88
2023-02-05T15:42:42.438Z,24.58
2023-02-05T15:45:28.168Z,24.88
2023-02-05T15:48:09.863Z,26.00
2023-02-05T15:50:44.264Z,25.35
2023-02-05T15:53:22.129Z,21.73
2023-02-05T15:55:51.228Z,21.77
2023-02-05T15:58:25.322Z,25.67
2023-02-05T16:00:56.508Z,25.05
2023-02-05T16:03:35.746Z,22.83
2023-02-05T16:06:02.521Z,24.13
2023-02-05T16:08:29.151Z,23.10
2023-02-05T16:10:58.522Z,25.42
2023-02-05T16:13:31.652Z,23.92
2023-02-05T16:16:18.058Z,26.70
2023-02-05T16:18:49.415Z,25.45
2023-02-05T16:21:28.205Z,24.08
2023-02-05T16:24:02.176Z,23.90
2023-02-05T16:26:43.750Z,24.80
2023-02-05T16:29:26.818Z,23.05
2023-02-05T16:32:23.904Z,26.88
2023-02-05T16:34:50.858Z,23.63
2023-02-05T16:37:19.270Z,23.85
2023-02-05T16:39:53.498Z,25.05
2023-02-05T16:42:26.108Z,23.50
2023-02-05T16:45:14.010Z,28.65
2023-02-05T16:47:40.503Z,25.27
2023-02-05T16:50:32.112Z,23.65
2023-02-05T16:52:59.236Z,23.73
2023-02-05T16:55:25.665Z,26.33
2023-02-05T16:57:53.988Z,30.10
2023-02-05T17:00:29.541Z,26.27
2023-02-05T17:03:00.267Z,22.73
2023-02-05T17:05:31.043Z,23.75
2023-02-05T17:08:01.777Z,22.75
2023-02-05T17:10:29.206Z,23.05
2023-02-05T17:13:01.734Z,25.63
2023-02-05T17:15:37.239Z,25.50
2023-02-05T17:18:30.408Z,24.45
2023-02-05T17:21:23.191Z,25.33
2023-02-05T17:23:53.848Z,26.88
2023-02-05T17:26:20.948Z,28.92
2023-02-05T17:28:56.142Z,29.58
2023-02-05T17:31:27.349Z,32.35
2023-02-05T17:33:55.614Z,27.75
2023-02-05T17:36:22.747Z,31.02
2023-02-05T17:38:50.220Z,29.25
2023-02-05T17:41:38.763Z,30.08
2023-02-05T17:44:05.925Z,28.45
2023-02-05T17:46:32.526Z,38.65
2023-02-05T17:48:59.000Z,31.67
2023-02-05T17:51:26.957Z,33.53
2023-02-05T17:53:53.599Z,30.85
2023-02-05T17:56:21.482Z,34.00
2023-02-05T17:58:49.812Z,29.75
2023-02-05T18:01:17.005Z,31.40
2023-02-05T18:03:43.933Z,31.63
2023-02-05T18:06:18.239Z,31.88
2023-02-05T18:08:47.646Z,31.80
2023-02-05T18:11:14.215Z,31.35
2023-02-05T18:13:40.814Z,29.92
2023-02-05T18:16:07.412Z,34.15
2023-02-05T18:18:36.319Z,32.10
2023-02-05T18:21:02.819Z,32.17
2023-02-05T18:23:29.576Z,32.55
2023-02-05T18:25:59.772Z,31.70
2023-02-05T18:28:26.374Z,33.17
2023-02-05T18:31:01.023Z,32.40
2023-02-05T18:33:28.272Z,34.10
2023-02-05T18:36:00.289Z,31.33
2023-02-05T18:38:26.736Z,32.13
2023-02-05T18:40:53.218Z,30.67
2023-02-05T18:43:19.673Z,32.42
2023-02-05T18:45:46.334Z,33.28
2023-02-05T18:48:12.844Z,31.80
2023-02-05T18:50:39.360Z,29.63
2023-02-05T18:53:09.243Z,30.58
2023-02-05T18:55:36.358Z,31.52
2023-02-05T18:58:04.009Z,34.17
2023-02-05T19:00:31.815Z,33.15
2023-02-05T19:02:58.636Z,38.17
2023-02-05T19:05:25.096Z,38.25
2023-02-05T19:07:51.596Z,31.42
2023-02-05T19:10:18.644Z,34.13
2023-02-05T19:12:45.175Z,37.17
2023-02-05T19:15:11.685Z,33.70
2023-02-05T19:17:38.266Z,35.67
2023-02-05T19:20:05.895Z,32.53
2023-02-05T19:22:32.582Z,37.75
2023-02-05T19:24:59.179Z,33.33
2023-02-05T19:27:25.667Z,33.25
2023-02-05T19:29:52.105Z,36.22
2023-02-05T19:32:18.571Z,29.42
2023-02-05T19:34:46.593Z,31.02
2023-02-05T19:37:13.184Z,29.83
2023-02-05T19:39:39.731Z,32.15
2023-02-05T19:42:07.082Z,33.22
2023-02-05T19:44:33.647Z,30.10
2023-02-05T19:47:00.115Z,36.03
2023-02-05T19:49:26.679Z,33.10
2023-02-05T19:51:55.363Z,37.13
2023-02-05T19:54:22.868Z,37.67
2023-02-05T19:56:50.121Z,41.60
2023-02-05T19:59:17.143Z,37.05
2023-02-05T20:01:45.145Z,34.58
2023-02-05T20:04:21.454Z,36.05
2023-02-05T20:06:49.124Z,36.00
2023-02-05T20:09:16.764Z,36.85
2023-02-05T20:11:48.931Z,41.35
2023-02-05T20:14:17.039Z,39.22
2023-02-05T20:16:45.119Z,38.85
2023-02-05T20:19:14.083Z,45.70
2023-02-05T20:21:41.246Z,43.40
2023-02-05T20:24:08.327Z,41.65
2023-02-05T20:26:35.531Z,48.13
2023-02-05T20:29:20.657Z,51.05
2023-02-05T20:31:51.801Z,55.42
2023-02-05T20:34:22.244Z,54.42
2023-02-05T20:36:52.030Z,114.40
2023-02-05T20:39:19.711Z,72.60
2023-02-05T20:41:48.621Z,55.35
2023-02-05T20:44:15.713Z,60.58
2023-02-05T20:46:42.388Z,53.70
2023-02-05T20:49:09.507Z,51.28
2023-02-05T20:51:36.726Z,55.20
2023-02-05T20:54:03.978Z,58.70
2023-02-05T20:56:31.743Z,54.35
2023-02-05T20:59:00.314Z,55.35
2023-02-05T21:01:28.045Z,60.80
2023-02-05T21:03:57.818Z,67.15
2023-02-05T21:06:24.988Z,59.38
2023-02-05T21:08:52.824Z,63.13
2023-02-05T21:11:21.149Z,58.85
2023-02-05T21:13:48.799Z,64.32
2023-02-05T21:16:16.890Z,58.42
2023-02-05T21:18:45.254Z,54.42
2023-02-05T21:21:18.343Z,58.83
2023-02-05T21:23:46.013Z,58.47
2023-02-05T21:26:21.624Z,61.85
2023-02-05T21:28:51.549Z,60.63
2023-02-05T21:31:18.148Z,53.28
2023-02-05T21:33:44.682Z,63.65
2023-02-05T21:36:11.934Z,57.35
2023-02-05T21:38:40.982Z,65.82
2023-02-05T21:41:09.869Z,64.20
2023-02-05T21:43:37.025Z,66.20
2023-02-05T21:46:05.303Z,67.00
2023-02-05T21:48:31.827Z,69.45
2023-02-05T21:51:00.043Z,68.00
2023-02-05T21:53:27.782Z,65.53
2023-02-05T21:55:54.806Z,61.65
2023-02-05T21:58:21.613Z,63.40
2023-02-05T22:00:48.200Z,66.63
2023-02-05T22:03:14.656Z,58.15
2023-02-05T22:05:41.186Z,61.78
2023-02-05T22:08:10.898Z,57.97
2023-02-05T22:10:38.328Z,52.05
2023-02-05T22:13:04.855Z,67.45
2023-02-05T22:15:31.346Z,66.93
2023-02-05T22:18:00.854Z,66.78
2023-02-05T22:20:27.376Z,67.18
2023-02-05T22:22:53.844Z,64.95
2023-02-05T22:25:20.462Z,55.65
2023-02-05T22:27:47.250Z,60.72
2023-02-05T22:30:14.022Z,53.25
2023-02-05T22:32:40.547Z,59.17
2023-02-05T22:35:07.356Z,53.33
2023-02-05T22:37:33.850Z,56.10
2023-02-05T22:40:00.350Z,60.80
2023-02-05T22:42:35.894Z,61.28
2023-02-05T22:45:05.831Z,49.47
2023-02-05T22:47:32.311Z,55.15
2023-02-05T22:49:58.754Z,48.63
2023-02-05T22:52:26.234Z,47.80
2023-02-05T22:54:52.701Z,49.40
2023-02-05T22:57:19.210Z,51.33
2023-02-05T22:59:45.699Z,44.67
2023-02-05T23:02:12.211Z,44.38
2023-02-05T23:04:38.645Z,47.05
2023-02-05T23:07:05.702Z,43.85
2023-02-05T23:09:34.365Z,47.15
2023-02-05T23:12:03.205Z,44.88
2023-02-05T23:14:29.669Z,46.40
2023-02-05T23:16:56.618Z,45.97
2023-02-05T23:19:23.107Z,51.20
2023-02-05T23:21:52.342Z,41.20
2023-02-05T23:24:21.335Z,41.20
2023-02-05T23:26:53.839Z,46.20
2023-02-05T23:29:20.930Z,47.28
2023-02-05T23:31:47.557Z,43.60
2023-02-05T23:34:14.114Z,37.38
2023-02-05T23:36:41.053Z,41.78
2023-02-05T23:39:10.422Z,37.50
2023-02-05T23:41:37.196Z,40.53
2023-02-05T23:44:07.561Z,41.08
2023-02-05T23:46:35.887Z,43.25
2023-02-05T23:49:02.858Z,40.15
2023-02-05T23:51:29.358Z,40.42
2023-02-05T23:53:58.626Z,45.08
2023-02-05T23:56:25.259Z,35.65
2023-02-05T23:58:55.768Z,42.95
